sensor_id;sensor_type;location;lat;lon;timestamp;P1;durP1;ratioP1;P2;durP2;ratioP2
11817;SDS011;5966;52.402;5.322;2023-02-03T00:01:35;8.30;;;2.33;;
11817;SDS011;5966;52.402;5.322;2023-02-03T00:04:03;9.43;;;2.20;;
11817;SDS011;5966;52.402;5.322;2023-02-03T00:06:31;6.80;;;2.23;;
11817;SDS011;5966;52.402;5.322;2023-02-03T00:08:59;6.13;;;1.80;;
11817;SDS011;5966;52.402;5.322;2023-02-03T00:11:28;8.20;;;2.07;;
11817;SDS011;5966;52.402;5.322;2023-02-03T00:13:56;5.60;;;1.90;;
11817;SDS011;5966;52.402;5.322;2023-02-03T00:16:26;7.10;;;2.47;;
11817;SDS011;5966;52.402;5.322;2023-02-03T00:18:54;7.17;;;2.10;;
11817;SDS011;5966;52.402;5.322;2023-02-03T00:21:22;8.53;;;2.33;;
11817;SDS011;5966;52.402;5.322;2023-02-03T00:23:50;14.77;;;2.50;;
11817;SDS011;5966;52.402;5.322;2023-02-03T00:26:19;7.53;;;2.30;;
11817;SDS011;5966;52.402;5.322;2023-02-03T00:28:49;7.43;;;2.50;;
11817;SDS011;5966;52.402;5.322;2023-02-03T00:31:17;11.47;;;2.50;;
11817;SDS011;5966;52.402;5.322;2023-02-03T00:33:51;6.20;;;2.17;;
11817;SDS011;5966;52.402;5.322;2023-02-03T00:36:21;5.00;;;2.10;;
11817;SDS011;5966;52.402;5.322;2023-02-03T00:38:49;7.97;;;2.60;;
11817;SDS011;5966;52.402;5.322;2023-02-03T00:41:17;6.93;;;1.77;;
11817;SDS011;5966;52.402;5.322;2023-02-03T00:43:46;9.30;;;2.30;;
11817;SDS011;5966;52.402;5.322;2023-02-03T00:46:14;8.97;;;2.20;;
11817;SDS011;5966;52.402;5.322;2023-02-03T00:48:43;7.00;;;1.90;;
11817;SDS011;5966;52.402;5.322;2023-02-03T00:51:12;8.13;;;2.20;;
11817;SDS011;5966;52.402;5.322;2023-02-03T00:53:40;5.83;;;1.90;;
11817;SDS011;5966;52.402;5.322;2023-02-03T00:56:08;4.10;;;1.87;;
11817;SDS011;5966;52.402;5.322;2023-02-03T00:58:38;6.23;;;2.00;;
11817;SDS011;5966;52.402;5.322;2023-02-03T01:01:06;7.40;;;2.00;;
11817;SDS011;5966;52.402;5.322;2023-02-03T01:03:34;12.60;;;2.53;;
11817;SDS011;5966;52.402;5.322;2023-02-03T01:06:13;6.80;;;2.13;;
11817;SDS011;5966;52.402;5.322;2023-02-03T01:08:43;8.30;;;2.27;;
11817;SDS011;5966;52.402;5.322;2023-02-03T01:11:11;6.47;;;1.77;;
11817;SDS011;5966;52.402;5.322;2023-02-03T01:13:40;7.73;;;2.40;;
11817;SDS011;5966;52.402;5.322;2023-02-03T01:16:08;7.27;;;2.20;;
11817;SDS011;5966;52.402;5.322;2023-02-03T01:18:38;5.50;;;2.07;;
11817;SDS011;5966;52.402;5.322;2023-02-03T01:21:07;7.87;;;2.30;;
11817;SDS011;5966;52.402;5.322;2023-02-03T01:23:38;8.60;;;2.37;;
11817;SDS011;5966;52.402;5.322;2023-02-03T01:26:06;7.60;;;2.33;;
11817;SDS011;5966;52.402;5.322;2023-02-03T01:28:36;5.43;;;2.20;;
11817;SDS011;5966;52.402;5.322;2023-02-03T01:31:08;6.87;;;2.43;;
11817;SDS011;5966;52.402;5.322;2023-02-03T01:33:37;9.47;;;2.03;;
11817;SDS011;5966;52.402;5.322;2023-02-03T01:36:06;6.07;;;1.87;;
11817;SDS011;5966;52.402;5.322;2023-02-03T01:38:35;6.97;;;2.03;;
11817;SDS011;5966;52.402;5.322;2023-02-03T01:41:06;7.17;;;2.13;;
11817;SDS011;5966;52.402;5.322;2023-02-03T01:43:39;8.40;;;1.83;;
11817;SDS011;5966;52.402;5.322;2023-02-03T01:46:14;6.67;;;1.90;;
11817;SDS011;5966;52.402;5.322;2023-02-03T01:48:51;7.47;;;2.03;;
11817;SDS011;5966;52.402;5.322;2023-02-03T01:51:22;6.90;;;1.73;;
11817;SDS011;5966;52.402;5.322;2023-02-03T01:53:50;6.93;;;1.53;;
11817;SDS011;5966;52.402;5.322;2023-02-03T01:56:21;5.40;;;1.50;;
11817;SDS011;5966;52.402;5.322;2023-02-03T01:58:52;5.27;;;1.93;;
11817;SDS011;5966;52.402;5.322;2023-02-03T02:01:20;5.53;;;2.00;;
11817;SDS011;5966;52.402;5.322;2023-02-03T02:03:49;7.27;;;1.60;;
11817;SDS011;5966;52.402;5.322;2023-02-03T02:06:21;8.03;;;2.07;;
11817;SDS011;5966;52.402;5.322;2023-02-03T02:08:49;6.57;;;1.70;;
11817;SDS011;5966;52.402;5.322;2023-02-03T02:11:18;6.33;;;1.70;;
11817;SDS011;5966;52.402;5.322;2023-02-03T02:13:48;12.37;;;2.20;;
11817;SDS011;5966;52.402;5.322;2023-02-03T02:16:21;6.50;;;1.73;;
11817;SDS011;5966;52.402;5.322;2023-02-03T02:19:04;7.40;;;1.93;;
11817;SDS011;5966;52.402;5.322;2023-02-03T02:21:54;6.43;;;1.80;;
11817;SDS011;5966;52.402;5.322;2023-02-03T02:27:30;3.37;;;1.40;;
11817;SDS011;5966;52.402;5.322;2023-02-03T02:30:29;7.43;;;1.80;;
11817;SDS011;5966;52.402;5.322;2023-02-03T02:33:14;6.77;;;1.73;;
11817;SDS011;5966;52.402;5.322;2023-02-03T02:35:49;7.80;;;1.70;;
11817;SDS011;5966;52.402;5.322;2023-02-03T02:38:31;4.20;;;1.47;;
11817;SDS011;5966;52.402;5.322;2023-02-03T02:41:05;6.80;;;1.87;;
11817;SDS011;5966;52.402;5.322;2023-02-03T02:43:38;4.67;;;1.80;;
11817;SDS011;5966;52.402;5.322;2023-02-03T02:46:09;5.30;;;1.67;;
11817;SDS011;5966;52.402;5.322;2023-02-03T02:48:41;5.63;;;1.63;;
11817;SDS011;5966;52.402;5.322;2023-02-03T02:51:14;5.07;;;1.57;;
11817;SDS011;5966;52.402;5.322;2023-02-03T02:53:45;6.60;;;1.83;;
11817;SDS011;5966;52.402;5.322;2023-02-03T02:56:16;3.43;;;1.40;;
11817;SDS011;5966;52.402;5.322;2023-02-03T02:58:46;6.43;;;1.70;;
11817;SDS011;5966;52.402;5.322;2023-02-03T03:01:15;6.20;;;1.83;;
11817;SDS011;5966;52.402;5.322;2023-02-03T03:03:45;6.13;;;1.43;;
11817;SDS011;5966;52.402;5.322;2023-02-03T03:06:14;6.33;;;2.10;;
11817;SDS011;5966;52.402;5.322;2023-02-03T03:08:49;4.57;;;1.57;;
11817;SDS011;5966;52.402;5.322;2023-02-03T03:11:20;5.30;;;1.70;;
11817;SDS011;5966;52.402;5.322;2023-02-03T03:13:52;6.20;;;1.70;;
11817;SDS011;5966;52.402;5.322;2023-02-03T03:16:22;6.63;;;1.70;;
11817;SDS011;5966;52.402;5.322;2023-02-03T03:18:54;5.70;;;1.60;;
11817;SDS011;5966;52.402;5.322;2023-02-03T03:21:25;3.97;;;1.37;;
11817;SDS011;5966;52.402;5.322;2023-02-03T03:23:58;7.60;;;1.80;;
11817;SDS011;5966;52.402;5.322;2023-02-03T03:26:31;11.10;;;1.60;;
11817;SDS011;5966;52.402;5.322;2023-02-03T03:29:05;9.17;;;1.77;;
11817;SDS011;5966;52.402;5.322;2023-02-03T03:31:36;6.87;;;1.70;;
11817;SDS011;5966;52.402;5.322;2023-02-03T03:34:08;4.97;;;1.30;;
11817;SDS011;5966;52.402;5.322;2023-02-03T03:36:39;4.20;;;2.30;;
11817;SDS011;5966;52.402;5.322;2023-02-03T03:39:12;5.67;;;1.53;;
11817;SDS011;5966;52.402;5.322;2023-02-03T03:41:46;5.53;;;1.63;;
11817;SDS011;5966;52.402;5.322;2023-02-03T03:44:24;7.17;;;1.93;;
11817;SDS011;5966;52.402;5.322;2023-02-03T03:46:58;6.27;;;1.70;;
11817;SDS011;5966;52.402;5.322;2023-02-03T03:49:35;8.30;;;1.77;;
11817;SDS011;5966;52.402;5.322;2023-02-03T03:52:05;8.27;;;1.53;;
11817;SDS011;5966;52.402;5.322;2023-02-03T03:54:36;6.07;;;1.50;;
11817;SDS011;5966;52.402;5.322;2023-02-03T03:57:07;7.43;;;1.50;;
11817;SDS011;5966;52.402;5.322;2023-02-03T03:59:41;4.40;;;1.67;;
11817;SDS011;5966;52.402;5.322;2023-02-03T04:02:12;10.00;;;1.63;;
11817;SDS011;5966;52.402;5.322;2023-02-03T04:04:43;6.93;;;1.60;;
11817;SDS011;5966;52.402;5.322;2023-02-03T04:07:12;7.33;;;1.90;;
11817;SDS011;5966;52.402;5.322;2023-02-03T04:09:41;6.60;;;1.93;;
11817;SDS011;5966;52.402;5.322;2023-02-03T04:12:12;12.97;;;1.97;;
11817;SDS011;5966;52.402;5.322;2023-02-03T04:14:48;4.07;;;1.30;;
11817;SDS011;5966;52.402;5.322;2023-02-03T04:17:16;6.93;;;2.00;;
11817;SDS011;5966;52.402;5.322;2023-02-03T04:19:46;7.80;;;2.10;;
11817;SDS011;5966;52.402;5.322;2023-02-03T04:22:15;7.30;;;2.10;;
11817;SDS011;5966;52.402;5.322;2023-02-03T04:24:43;6.43;;;2.00;;
11817;SDS011;5966;52.402;5.322;2023-02-03T04:27:10;8.07;;;1.93;;
11817;SDS011;5966;52.402;5.322;2023-02-03T04:29:38;6.43;;;2.00;;
11817;SDS011;5966;52.402;5.322;2023-02-03T04:32:06;8.33;;;1.90;;
11817;SDS011;5966;52.402;5.322;2023-02-03T04:34:34;7.33;;;1.80;;
11817;SDS011;5966;52.402;5.322;2023-02-03T04:37:03;6.33;;;2.00;;
11817;SDS011;5966;52.402;5.322;2023-02-03T04:39:31;4.53;;;1.57;;
11817;SDS011;5966;52.402;5.322;2023-02-03T04:41:59;7.10;;;2.30;;
11817;SDS011;5966;52.402;5.322;2023-02-03T04:44:27;6.47;;;1.80;;
11817;SDS011;5966;52.402;5.322;2023-02-03T04:46:55;7.13;;;2.20;;
11817;SDS011;5966;52.402;5.322;2023-02-03T04:49:23;9.97;;;2.67;;
11817;SDS011;5966;52.402;5.322;2023-02-03T04:51:51;5.27;;;1.80;;
11817;SDS011;5966;52.402;5.322;2023-02-03T04:54:20;4.07;;;1.27;;
11817;SDS011;5966;52.402;5.322;2023-02-03T04:56:48;5.97;;;1.97;;
11817;SDS011;5966;52.402;5.322;2023-02-03T04:59:16;5.30;;;1.70;;
11817;SDS011;5966;52.402;5.322;2023-02-03T05:01:44;5.73;;;1.47;;
11817;SDS011;5966;52.402;5.322;2023-02-03T05:04:11;7.47;;;1.53;;
11817;SDS011;5966;52.402;5.322;2023-02-03T05:06:39;8.23;;;1.67;;
11817;SDS011;5966;52.402;5.322;2023-02-03T05:09:07;10.90;;;2.13;;
11817;SDS011;5966;52.402;5.322;2023-02-03T05:11:36;5.40;;;1.73;;
11817;SDS011;5966;52.402;5.322;2023-02-03T05:14:04;5.80;;;1.60;;
11817;SDS011;5966;52.402;5.322;2023-02-03T05:16:32;5.80;;;1.60;;
11817;SDS011;5966;52.402;5.322;2023-02-03T05:19:00;8.13;;;1.83;;
11817;SDS011;5966;52.402;5.322;2023-02-03T05:21:28;5.27;;;1.60;;
11817;SDS011;5966;52.402;5.322;2023-02-03T05:23:56;7.30;;;1.80;;
11817;SDS011;5966;52.402;5.322;2023-02-03T05:26:25;7.40;;;1.60;;
11817;SDS011;5966;52.402;5.322;2023-02-03T05:28:54;9.27;;;2.43;;
11817;SDS011;5966;52.402;5.322;2023-02-03T05:31:23;6.17;;;1.57;;
11817;SDS011;5966;52.402;5.322;2023-02-03T05:33:51;6.13;;;2.13;;
11817;SDS011;5966;52.402;5.322;2023-02-03T05:36:18;4.03;;;1.50;;
11817;SDS011;5966;52.402;5.322;2023-02-03T05:38:46;8.23;;;1.60;;
11817;SDS011;5966;52.402;5.322;2023-02-03T05:41:14;10.17;;;1.70;;
11817;SDS011;5966;52.402;5.322;2023-02-03T05:44:01;7.90;;;2.10;;
11817;SDS011;5966;52.402;5.322;2023-02-03T05:46:29;6.37;;;1.63;;
11817;SDS011;5966;52.402;5.322;2023-02-03T05:48:57;8.73;;;1.90;;
11817;SDS011;5966;52.402;5.322;2023-02-03T05:51:24;6.57;;;1.60;;
11817;SDS011;5966;52.402;5.322;2023-02-03T05:53:53;7.73;;;1.47;;
11817;SDS011;5966;52.402;5.322;2023-02-03T05:56:21;10.20;;;1.90;;
11817;SDS011;5966;52.402;5.322;2023-02-03T05:58:49;5.53;;;1.87;;
11817;SDS011;5966;52.402;5.322;2023-02-03T06:01:19;8.63;;;2.23;;
11817;SDS011;5966;52.402;5.322;2023-02-03T06:03:47;5.97;;;1.60;;
11817;SDS011;5966;52.402;5.322;2023-02-03T06:06:16;9.13;;;1.97;;
11817;SDS011;5966;52.402;5.322;2023-02-03T06:08:44;10.93;;;1.93;;
11817;SDS011;5966;52.402;5.322;2023-02-03T06:11:12;7.63;;;2.20;;
11817;SDS011;5966;52.402;5.322;2023-02-03T06:13:39;3.90;;;1.83;;
11817;SDS011;5966;52.402;5.322;2023-02-03T06:16:07;8.63;;;2.03;;
11817;SDS011;5966;52.402;5.322;2023-02-03T06:18:37;8.10;;;2.20;;
11817;SDS011;5966;52.402;5.322;2023-02-03T06:21:05;7.43;;;1.83;;
11817;SDS011;5966;52.402;5.322;2023-02-03T06:23:32;7.13;;;2.07;;
11817;SDS011;5966;52.402;5.322;2023-02-03T06:26:00;10.00;;;2.17;;
11817;SDS011;5966;52.402;5.322;2023-02-03T06:28:28;13.30;;;2.23;;
11817;SDS011;5966;52.402;5.322;2023-02-03T06:30:58;12.60;;;2.70;;
11817;SDS011;5966;52.402;5.322;2023-02-03T06:33:26;7.73;;;1.77;;
11817;SDS011;5966;52.402;5.322;2023-02-03T06:35:55;6.57;;;2.20;;
11817;SDS011;5966;52.402;5.322;2023-02-03T06:38:23;7.17;;;1.67;;
11817;SDS011;5966;52.402;5.322;2023-02-03T06:40:51;11.03;;;1.80;;
11817;SDS011;5966;52.402;5.322;2023-02-03T06:43:19;6.20;;;2.20;;
11817;SDS011;5966;52.402;5.322;2023-02-03T06:45:47;12.73;;;2.20;;
11817;SDS011;5966;52.402;5.322;2023-02-03T06:48:15;5.47;;;1.80;;
11817;SDS011;5966;52.402;5.322;2023-02-03T06:50:43;8.03;;;2.10;;
11817;SDS011;5966;52.402;5.322;2023-02-03T06:53:15;9.50;;;2.43;;
11817;SDS011;5966;52.402;5.322;2023-02-03T06:55:43;10.70;;;2.63;;
11817;SDS011;5966;52.402;5.322;2023-02-03T06:58:13;7.33;;;1.90;;
11817;SDS011;5966;52.402;5.322;2023-02-03T07:00:40;8.87;;;2.37;;
11817;SDS011;5966;52.402;5.322;2023-02-03T07:03:08;10.73;;;2.20;;
11817;SDS011;5966;52.402;5.322;2023-02-03T07:05:36;7.57;;;2.03;;
11817;SDS011;5966;52.402;5.322;2023-02-03T07:08:05;7.27;;;2.40;;
11817;SDS011;5966;52.402;5.322;2023-02-03T07:10:35;8.60;;;2.33;;
11817;SDS011;5966;52.402;5.322;2023-02-03T07:13:03;8.10;;;2.10;;
11817;SDS011;5966;52.402;5.322;2023-02-03T07:15:32;6.03;;;2.07;;
11817;SDS011;5966;52.402;5.322;2023-02-03T07:18:00;7.87;;;2.13;;
11817;SDS011;5966;52.402;5.322;2023-02-03T07:20:28;6.13;;;2.03;;
11817;SDS011;5966;52.402;5.322;2023-02-03T07:22:58;12.00;;;2.27;;
11817;SDS011;5966;52.402;5.322;2023-02-03T07:25:26;7.47;;;2.27;;
11817;SDS011;5966;52.402;5.322;2023-02-03T07:27:55;6.67;;;2.27;;
11817;SDS011;5966;52.402;5.322;2023-02-03T07:30:23;11.93;;;2.30;;
11817;SDS011;5966;52.402;5.322;2023-02-03T07:32:52;7.23;;;2.10;;
11817;SDS011;5966;52.402;5.322;2023-02-03T07:35:20;6.70;;;2.03;;
11817;SDS011;5966;52.402;5.322;2023-02-03T07:37:48;5.33;;;1.60;;
11817;SDS011;5966;52.402;5.322;2023-02-03T07:40:16;8.30;;;1.67;;
11817;SDS011;5966;52.402;5.322;2023-02-03T07:42:45;5.77;;;2.00;;
11817;SDS011;5966;52.402;5.322;2023-02-03T07:45:15;6.67;;;2.03;;
11817;SDS011;5966;52.402;5.322;2023-02-03T07:47:44;8.17;;;2.10;;
11817;SDS011;5966;52.402;5.322;2023-02-03T07:50:12;5.93;;;1.90;;
11817;SDS011;5966;52.402;5.322;2023-02-03T07:52:40;10.13;;;1.90;;
11817;SDS011;5966;52.402;5.322;2023-02-03T07:55:08;7.70;;;1.97;;
11817;SDS011;5966;52.402;5.322;2023-02-03T07:57:36;6.63;;;2.00;;
11817;SDS011;5966;52.402;5.322;2023-02-03T08:00:09;5.80;;;1.80;;
11817;SDS011;5966;52.402;5.322;2023-02-03T08:02:40;4.70;;;1.60;;
11817;SDS011;5966;52.402;5.322;2023-02-03T08:05:08;4.03;;;1.53;;
11817;SDS011;5966;52.402;5.322;2023-02-03T08:07:37;8.57;;;2.00;;
11817;SDS011;5966;52.402;5.322;2023-02-03T08:10:06;5.27;;;1.90;;
11817;SDS011;5966;52.402;5.322;2023-02-03T08:12:35;8.73;;;2.00;;
11817;SDS011;5966;52.402;5.322;2023-02-03T08:15:04;7.93;;;2.17;;
11817;SDS011;5966;52.402;5.322;2023-02-03T08:17:33;4.73;;;2.07;;
11817;SDS011;5966;52.402;5.322;2023-02-03T08:20:03;6.63;;;1.97;;
11817;SDS011;5966;52.402;5.322;2023-02-03T08:22:32;7.47;;;2.53;;
11817;SDS011;5966;52.402;5.322;2023-02-03T08:25:00;4.27;;;1.70;;
11817;SDS011;5966;52.402;5.322;2023-02-03T08:27:30;8.20;;;1.90;;
11817;SDS011;5966;52.402;5.322;2023-02-03T08:29:59;6.03;;;1.80;;
11817;SDS011;5966;52.402;5.322;2023-02-03T08:32:26;6.30;;;1.90;;
11817;SDS011;5966;52.402;5.322;2023-02-03T08:34:55;6.93;;;1.77;;
11817;SDS011;5966;52.402;5.322;2023-02-03T08:37:24;8.87;;;1.53;;
11817;SDS011;5966;52.402;5.322;2023-02-03T08:39:53;5.43;;;1.80;;
11817;SDS011;5966;52.402;5.322;2023-02-03T08:42:21;9.57;;;2.23;;
11817;SDS011;5966;52.402;5.322;2023-02-03T08:44:49;10.13;;;2.10;;
11817;SDS011;5966;52.402;5.322;2023-02-03T08:47:17;6.93;;;2.00;;
11817;SDS011;5966;52.402;5.322;2023-02-03T08:49:45;7.40;;;1.90;;
11817;SDS011;5966;52.402;5.322;2023-02-03T08:52:13;5.70;;;1.90;;
11817;SDS011;5966;52.402;5.322;2023-02-03T08:54:45;11.13;;;2.57;;
11817;SDS011;5966;52.402;5.322;2023-02-03T08:57:14;3.77;;;1.53;;
11817;SDS011;5966;52.402;5.322;2023-02-03T08:59:42;10.43;;;2.27;;
11817;SDS011;5966;52.402;5.322;2023-02-03T09:02:12;6.47;;;1.93;;
11817;SDS011;5966;52.402;5.322;2023-02-03T09:04:43;6.83;;;1.90;;
11817;SDS011;5966;52.402;5.322;2023-02-03T09:07:12;10.13;;;2.00;;
11817;SDS011;5966;52.402;5.322;2023-02-03T09:09:42;8.83;;;2.33;;
11817;SDS011;5966;52.402;5.322;2023-02-03T09:12:11;7.10;;;2.27;;
11817;SDS011;5966;52.402;5.322;2023-02-03T09:14:39;9.27;;;2.00;;
11817;SDS011;5966;52.402;5.322;2023-02-03T09:17:07;8.37;;;2.00;;
11817;SDS011;5966;52.402;5.322;2023-02-03T09:19:36;8.87;;;2.43;;
11817;SDS011;5966;52.402;5.322;2023-02-03T09:22:04;5.43;;;1.70;;
11817;SDS011;5966;52.402;5.322;2023-02-03T09:24:33;7.73;;;1.87;;
11817;SDS011;5966;52.402;5.322;2023-02-03T09:27:01;8.67;;;2.00;;
11817;SDS011;5966;52.402;5.322;2023-02-03T09:29:30;7.47;;;1.87;;
11817;SDS011;5966;52.402;5.322;2023-02-03T09:31:58;5.50;;;1.73;;
11817;SDS011;5966;52.402;5.322;2023-02-03T09:34:32;6.67;;;1.57;;
11817;SDS011;5966;52.402;5.322;2023-02-03T09:37:00;5.43;;;1.70;;
11817;SDS011;5966;52.402;5.322;2023-02-03T09:39:29;7.57;;;2.07;;
11817;SDS011;5966;52.402;5.322;2023-02-03T09:42:06;7.17;;;1.67;;
11817;SDS011;5966;52.402;5.322;2023-02-03T09:44:54;5.90;;;1.90;;
11817;SDS011;5966;52.402;5.322;2023-02-03T09:47:33;7.57;;;1.97;;
11817;SDS011;5966;52.402;5.322;2023-02-03T09:50:03;5.67;;;1.60;;
11817;SDS011;5966;52.402;5.322;2023-02-03T09:52:34;8.07;;;2.00;;
11817;SDS011;5966;52.402;5.322;2023-02-03T09:55:06;7.07;;;1.50;;
11817;SDS011;5966;52.402;5.322;2023-02-03T09:57:44;7.07;;;2.43;;
11817;SDS011;5966;52.402;5.322;2023-02-03T10:00:19;6.27;;;1.80;;
11817;SDS011;5966;52.402;5.322;2023-02-03T10:02:53;3.63;;;1.73;;
11817;SDS011;5966;52.402;5.322;2023-02-03T10:05:28;10.13;;;2.27;;
11817;SDS011;5966;52.402;5.322;2023-02-03T10:08:09;8.23;;;1.90;;
11817;SDS011;5966;52.402;5.322;2023-02-03T10:10:45;7.47;;;2.13;;
11817;SDS011;5966;52.402;5.322;2023-02-03T10:13:35;9.40;;;2.00;;
11817;SDS011;5966;52.402;5.322;2023-02-03T10:16:17;4.63;;;1.87;;
11817;SDS011;5966;52.402;5.322;2023-02-03T10:18:55;9.13;;;2.37;;
11817;SDS011;5966;52.402;5.322;2023-02-03T10:21:31;5.17;;;2.00;;
11817;SDS011;5966;52.402;5.322;2023-02-03T10:24:03;8.07;;;2.30;;
11817;SDS011;5966;52.402;5.322;2023-02-03T10:26:38;7.57;;;1.80;;
11817;SDS011;5966;52.402;5.322;2023-02-03T10:29:12;6.80;;;1.90;;
11817;SDS011;5966;52.402;5.322;2023-02-03T10:31:47;8.40;;;2.07;;
11817;SDS011;5966;52.402;5.322;2023-02-03T10:34:15;7.83;;;1.70;;
11817;SDS011;5966;52.402;5.322;2023-02-03T10:36:51;7.67;;;1.97;;
11817;SDS011;5966;52.402;5.322;2023-02-03T10:39:31;9.10;;;2.37;;
11817;SDS011;5966;52.402;5.322;2023-02-03T10:42:05;6.50;;;1.63;;
11817;SDS011;5966;52.402;5.322;2023-02-03T10:44:35;7.00;;;2.13;;
11817;SDS011;5966;52.402;5.322;2023-02-03T10:47:12;11.10;;;2.20;;
11817;SDS011;5966;52.402;5.322;2023-02-03T10:49:50;8.77;;;1.90;;
11817;SDS011;5966;52.402;5.322;2023-02-03T10:52:24;8.80;;;2.40;;
11817;SDS011;5966;52.402;5.322;2023-02-03T10:54:54;7.60;;;1.90;;
11817;SDS011;5966;52.402;5.322;2023-02-03T10:57:25;7.93;;;2.80;;
11817;SDS011;5966;52.402;5.322;2023-02-03T11:00:04;6.87;;;2.00;;
11817;SDS011;5966;52.402;5.322;2023-02-03T11:02:36;10.30;;;1.93;;
11817;SDS011;5966;52.402;5.322;2023-02-03T11:05:07;8.90;;;2.30;;
11817;SDS011;5966;52.402;5.322;2023-02-03T11:07:46;7.73;;;1.80;;
11817;SDS011;5966;52.402;5.322;2023-02-03T11:10:27;6.90;;;2.00;;
11817;SDS011;5966;52.402;5.322;2023-02-03T11:13:17;8.43;;;2.33;;
11817;SDS011;5966;52.402;5.322;2023-02-03T11:15:56;5.23;;;2.00;;
11817;SDS011;5966;52.402;5.322;2023-02-03T11:18:32;6.07;;;1.73;;
11817;SDS011;5966;52.402;5.322;2023-02-03T11:21:20;8.07;;;2.43;;
11817;SDS011;5966;52.402;5.322;2023-02-03T11:23:59;9.57;;;2.10;;
11817;SDS011;5966;52.402;5.322;2023-02-03T11:26:31;5.20;;;1.70;;
11817;SDS011;5966;52.402;5.322;2023-02-03T11:29:02;7.40;;;1.80;;
11817;SDS011;5966;52.402;5.322;2023-02-03T11:31:33;8.73;;;2.13;;
11817;SDS011;5966;52.402;5.322;2023-02-03T11:34:04;7.80;;;2.33;;
11817;SDS011;5966;52.402;5.322;2023-02-03T11:36:40;7.20;;;2.10;;
11817;SDS011;5966;52.402;5.322;2023-02-03T11:39:27;6.10;;;2.17;;
11817;SDS011;5966;52.402;5.322;2023-02-03T11:42:00;7.83;;;1.73;;
11817;SDS011;5966;52.402;5.322;2023-02-03T11:44:29;7.90;;;2.30;;
11817;SDS011;5966;52.402;5.322;2023-02-03T11:46:59;6.43;;;2.03;;
11817;SDS011;5966;52.402;5.322;2023-02-03T11:52:52;11.17;;;2.10;;
11817;SDS011;5966;52.402;5.322;2023-02-03T11:55:32;13.20;;;2.40;;
11817;SDS011;5966;52.402;5.322;2023-02-03T11:58:13;9.63;;;2.23;;
11817;SDS011;5966;52.402;5.322;2023-02-03T12:01:11;7.07;;;2.27;;
11817;SDS011;5966;52.402;5.322;2023-02-03T12:03:53;10.47;;;2.37;;
11817;SDS011;5966;52.402;5.322;2023-02-03T12:06:45;8.07;;;2.33;;
11817;SDS011;5966;52.402;5.322;2023-02-03T12:09:26;13.70;;;2.57;;
11817;SDS011;5966;52.402;5.322;2023-02-03T12:12:08;11.33;;;2.20;;
11817;SDS011;5966;52.402;5.322;2023-02-03T12:14:48;9.80;;;2.57;;
11817;SDS011;5966;52.402;5.322;2023-02-03T12:17:33;11.10;;;2.47;;
11817;SDS011;5966;52.402;5.322;2023-02-03T12:20:22;10.90;;;2.60;;
11817;SDS011;5966;52.402;5.322;2023-02-03T12:23:03;15.57;;;2.97;;
11817;SDS011;5966;52.402;5.322;2023-02-03T12:25:46;9.20;;;2.27;;
11817;SDS011;5966;52.402;5.322;2023-02-03T12:28:26;10.83;;;2.77;;
11817;SDS011;5966;52.402;5.322;2023-02-03T12:31:07;10.37;;;2.43;;
11817;SDS011;5966;52.402;5.322;2023-02-03T12:33:41;7.87;;;2.60;;
11817;SDS011;5966;52.402;5.322;2023-02-03T12:36:14;8.80;;;2.30;;
11817;SDS011;5966;52.402;5.322;2023-02-03T12:38:45;11.20;;;2.93;;
11817;SDS011;5966;52.402;5.322;2023-02-03T12:41:21;12.47;;;2.20;;
11817;SDS011;5966;52.402;5.322;2023-02-03T12:43:53;13.27;;;3.23;;
11817;SDS011;5966;52.402;5.322;2023-02-03T12:46:27;9.93;;;2.43;;
11817;SDS011;5966;52.402;5.322;2023-02-03T12:48:58;13.00;;;2.60;;
11817;SDS011;5966;52.402;5.322;2023-02-03T12:51:33;9.13;;;2.40;;
11817;SDS011;5966;52.402;5.322;2023-02-03T12:54:07;13.90;;;3.03;;
11817;SDS011;5966;52.402;5.322;2023-02-03T12:56:42;11.43;;;2.60;;
11817;SDS011;5966;52.402;5.322;2023-02-03T12:59:14;10.77;;;3.10;;
11817;SDS011;5966;52.402;5.322;2023-02-03T13:01:48;13.80;;;3.03;;
11817;SDS011;5966;52.402;5.322;2023-02-03T13:04:23;15.40;;;2.80;;
11817;SDS011;5966;52.402;5.322;2023-02-03T13:06:57;8.97;;;2.77;;
11817;SDS011;5966;52.402;5.322;2023-02-03T13:09:34;15.70;;;2.87;;
11817;SDS011;5966;52.402;5.322;2023-02-03T13:12:08;13.03;;;2.77;;
11817;SDS011;5966;52.402;5.322;2023-02-03T13:14:40;16.30;;;3.17;;
11817;SDS011;5966;52.402;5.322;2023-02-03T13:17:12;18.50;;;3.70;;
11817;SDS011;5966;52.402;5.322;2023-02-03T13:19:46;13.70;;;3.17;;
11817;SDS011;5966;52.402;5.322;2023-02-03T13:22:20;13.10;;;3.63;;
11817;SDS011;5966;52.402;5.322;2023-02-03T13:24:51;18.13;;;3.47;;
11817;SDS011;5966;52.402;5.322;2023-02-03T13:27:33;17.33;;;3.83;;
11817;SDS011;5966;52.402;5.322;2023-02-03T13:30:10;16.23;;;3.43;;
11817;SDS011;5966;52.402;5.322;2023-02-03T13:32:56;16.10;;;4.00;;
11817;SDS011;5966;52.402;5.322;2023-02-03T13:35:54;14.60;;;3.57;;
11817;SDS011;5966;52.402;5.322;2023-02-03T13:38:48;16.13;;;3.60;;
11817;SDS011;5966;52.402;5.322;2023-02-03T13:41:34;19.73;;;3.93;;
11817;SDS011;5966;52.402;5.322;2023-02-03T13:44:09;20.10;;;4.30;;
11817;SDS011;5966;52.402;5.322;2023-02-03T13:46:41;16.43;;;3.30;;
11817;SDS011;5966;52.402;5.322;2023-02-03T13:49:15;16.83;;;3.47;;
11817;SDS011;5966;52.402;5.322;2023-02-03T13:51:49;13.77;;;3.47;;
11817;SDS011;5966;52.402;5.322;2023-02-03T13:54:20;22.00;;;4.00;;
11817;SDS011;5966;52.402;5.322;2023-02-03T13:56:54;15.63;;;3.47;;
11817;SDS011;5966;52.402;5.322;2023-02-03T13:59:29;18.37;;;3.90;;
11817;SDS011;5966;52.402;5.322;2023-02-03T14:05:08;18.70;;;4.07;;
11817;SDS011;5966;52.402;5.322;2023-02-03T14:23:27;16.70;;;3.40;;
11817;SDS011;5966;52.402;5.322;2023-02-03T14:26:06;17.17;;;4.00;;
11817;SDS011;5966;52.402;5.322;2023-02-03T14:28:44;17.20;;;3.97;;
11817;SDS011;5966;52.402;5.322;2023-02-03T14:31:15;16.13;;;3.73;;
11817;SDS011;5966;52.402;5.322;2023-02-03T14:33:53;16.33;;;3.67;;
11817;SDS011;5966;52.402;5.322;2023-02-03T14:36:30;17.33;;;3.80;;
11817;SDS011;5966;52.402;5.322;2023-02-03T14:39:02;18.70;;;4.07;;
11817;SDS011;5966;52.402;5.322;2023-02-03T14:41:51;13.37;;;4.20;;
11817;SDS011;5966;52.402;5.322;2023-02-03T14:44:28;21.27;;;4.33;;
11817;SDS011;5966;52.402;5.322;2023-02-03T14:47:08;14.77;;;3.90;;
11817;SDS011;5966;52.402;5.322;2023-02-03T14:49:44;14.53;;;3.60;;
11817;SDS011;5966;52.402;5.322;2023-02-03T14:52:26;17.50;;;3.93;;
11817;SDS011;5966;52.402;5.322;2023-02-03T14:55:24;16.70;;;3.60;;
11817;SDS011;5966;52.402;5.322;2023-02-03T14:58:02;21.47;;;3.77;;
11817;SDS011;5966;52.402;5.322;2023-02-03T15:00:33;14.17;;;4.47;;
11817;SDS011;5966;52.402;5.322;2023-02-03T15:03:23;14.60;;;3.73;;
11817;SDS011;5966;52.402;5.322;2023-02-03T15:05:53;16.70;;;4.37;;
11817;SDS011;5966;52.402;5.322;2023-02-03T15:11:14;14.67;;;3.07;;
11817;SDS011;5966;52.402;5.322;2023-02-03T15:13:49;15.73;;;3.40;;
11817;SDS011;5966;52.402;5.322;2023-02-03T15:16:18;11.80;;;3.90;;
11817;SDS011;5966;52.402;5.322;2023-02-03T15:18:53;19.20;;;4.20;;
11817;SDS011;5966;52.402;5.322;2023-02-03T15:21:23;16.43;;;3.93;;
11817;SDS011;5966;52.402;5.322;2023-02-03T15:23:52;21.03;;;3.93;;
11817;SDS011;5966;52.402;5.322;2023-02-03T15:26:21;18.67;;;3.50;;
11817;SDS011;5966;52.402;5.322;2023-02-03T15:28:53;14.77;;;3.77;;
11817;SDS011;5966;52.402;5.322;2023-02-03T15:31:28;20.10;;;3.97;;
11817;SDS011;5966;52.402;5.322;2023-02-03T15:34:02;14.73;;;3.67;;
11817;SDS011;5966;52.402;5.322;2023-02-03T15:36:34;17.17;;;3.77;;
11817;SDS011;5966;52.402;5.322;2023-02-03T15:39:11;15.00;;;3.57;;
11817;SDS011;5966;52.402;5.322;2023-02-03T15:41:47;15.83;;;3.57;;
11817;SDS011;5966;52.402;5.322;2023-02-03T15:44:23;13.03;;;3.60;;
11817;SDS011;5966;52.402;5.322;2023-02-03T15:46:57;20.20;;;3.80;;
11817;SDS011;5966;52.402;5.322;2023-02-03T15:49:30;21.77;;;4.13;;
11817;SDS011;5966;52.402;5.322;2023-02-03T15:52:06;18.83;;;3.97;;
11817;SDS011;5966;52.402;5.322;2023-02-03T15:54:40;14.97;;;3.83;;
11817;SDS011;5966;52.402;5.322;2023-02-03T15:57:14;14.27;;;3.70;;